sensor_id;sensor_type;location;lat;lon;timestamp;P1;durP1;ratioP1;P2;durP2;ratioP2
5157;SDS011;2598;52.364;9.772;2023-10-13T00:01:21;13.77;;;8.87;;
5157;SDS011;2598;52.364;9.772;2023-10-13T00:03:47;14.60;;;8.57;;
5157;SDS011;2598;52.364;9.772;2023-10-13T00:06:13;15.07;;;8.50;;
5157;SDS011;2598;52.364;9.772;2023-10-13T00:08:40;13.73;;;8.20;;
5157;SDS011;2598;52.364;9.772;2023-10-13T00:11:06;23.03;;;9.20;;
5157;SDS011;2598;52.364;9.772;2023-10-13T00:13:37;15.33;;;7.77;;
5157;SDS011;2598;52.364;9.772;2023-10-13T00:16:08;16.13;;;7.70;;
5157;SDS011;2598;52.364;9.772;2023-10-13T00:18:35;13.07;;;8.40;;
5157;SDS011;2598;52.364;9.772;2023-10-13T00:21:07;15.30;;;8.20;;
5157;SDS011;2598;52.364;9.772;2023-10-13T00:23:52;13.97;;;7.13;;
5157;SDS011;2598;52.364;9.772;2023-10-13T00:26:22;16.00;;;7.90;;
5157;SDS011;2598;52.364;9.772;2023-10-13T00:28:51;16.30;;;7.70;;
5157;SDS011;2598;52.364;9.772;2023-10-13T00:31:24;12.30;;;7.63;;
5157;SDS011;2598;52.364;9.772;2023-10-13T00:33:53;12.93;;;7.87;;
5157;SDS011;2598;52.364;9.772;2023-10-13T00:36:26;13.47;;;8.20;;
5157;SDS011;2598;52.364;9.772;2023-10-13T00:38:51;13.03;;;8.00;;
5157;SDS011;2598;52.364;9.772;2023-10-13T00:41:21;13.47;;;8.00;;
5157;SDS011;2598;52.364;9.772;2023-10-13T00:44:07;19.30;;;7.70;;
5157;SDS011;2598;52.364;9.772;2023-10-13T00:46:34;16.80;;;8.30;;
5157;SDS011;2598;52.364;9.772;2023-10-13T00:49:01;18.93;;;8.20;;
5157;SDS011;2598;52.364;9.772;2023-10-13T00:51:27;11.47;;;7.60;;
5157;SDS011;2598;52.364;9.772;2023-10-13T00:54:12;10.20;;;7.47;;
5157;SDS011;2598;52.364;9.772;2023-10-13T00:56:39;14.30;;;8.20;;
5157;SDS011;2598;52.364;9.772;2023-10-13T00:59:22;14.60;;;8.00;;
5157;SDS011;2598;52.364;9.772;2023-10-13T01:01:50;15.10;;;8.20;;
5157;SDS011;2598;52.364;9.772;2023-10-13T01:04:20;12.60;;;7.47;;
5157;SDS011;2598;52.364;9.772;2023-10-13T01:06:48;14.40;;;8.47;;
5157;SDS011;2598;52.364;9.772;2023-10-13T01:09:16;16.90;;;8.20;;
5157;SDS011;2598;52.364;9.772;2023-10-13T01:11:43;13.40;;;7.73;;
5157;SDS011;2598;52.364;9.772;2023-10-13T01:14:12;16.50;;;9.63;;
5157;SDS011;2598;52.364;9.772;2023-10-13T01:16:42;11.87;;;7.70;;
5157;SDS011;2598;52.364;9.772;2023-10-13T01:19:11;12.10;;;8.00;;
5157;SDS011;2598;52.364;9.772;2023-10-13T01:21:38;13.60;;;7.57;;
5157;SDS011;2598;52.364;9.772;2023-10-13T01:24:17;15.40;;;9.37;;
5157;SDS011;2598;52.364;9.772;2023-10-13T01:26:48;15.47;;;7.73;;
5157;SDS011;2598;52.364;9.772;2023-10-13T01:29:16;12.90;;;8.10;;
5157;SDS011;2598;52.364;9.772;2023-10-13T01:31:44;12.13;;;8.30;;
5157;SDS011;2598;52.364;9.772;2023-10-13T01:34:14;15.10;;;8.53;;
5157;SDS011;2598;52.364;9.772;2023-10-13T01:36:46;16.70;;;8.80;;
5157;SDS011;2598;52.364;9.772;2023-10-13T01:39:15;13.27;;;8.10;;
5157;SDS011;2598;52.364;9.772;2023-10-13T01:41:42;14.33;;;8.83;;
5157;SDS011;2598;52.364;9.772;2023-10-13T01:44:08;19.00;;;9.77;;
5157;SDS011;2598;52.364;9.772;2023-10-13T01:46:36;16.97;;;10.23;;
5157;SDS011;2598;52.364;9.772;2023-10-13T01:49:02;14.10;;;9.93;;
5157;SDS011;2598;52.364;9.772;2023-10-13T01:51:28;12.50;;;8.50;;
5157;SDS011;2598;52.364;9.772;2023-10-13T01:53:54;14.40;;;9.63;;
5157;SDS011;2598;52.364;9.772;2023-10-13T01:56:23;17.77;;;9.90;;
5157;SDS011;2598;52.364;9.772;2023-10-13T01:58:50;19.37;;;11.07;;
5157;SDS011;2598;52.364;9.772;2023-10-13T02:01:17;17.10;;;10.90;;
5157;SDS011;2598;52.364;9.772;2023-10-13T02:03:52;15.27;;;10.03;;
5157;SDS011;2598;52.364;9.772;2023-10-13T02:06:27;16.47;;;10.60;;
5157;SDS011;2598;52.364;9.772;2023-10-13T02:08:58;17.90;;;10.77;;
5157;SDS011;2598;52.364;9.772;2023-10-13T02:11:29;18.10;;;10.90;;
5157;SDS011;2598;52.364;9.772;2023-10-13T02:13:55;15.17;;;10.27;;
5157;SDS011;2598;52.364;9.772;2023-10-13T02:16:22;18.80;;;10.77;;
5157;SDS011;2598;52.364;9.772;2023-10-13T02:18:50;15.77;;;10.80;;
5157;SDS011;2598;52.364;9.772;2023-10-13T02:21:16;16.70;;;9.77;;
5157;SDS011;2598;52.364;9.772;2023-10-13T02:23:42;17.23;;;10.60;;
5157;SDS011;2598;52.364;9.772;2023-10-13T02:26:24;17.00;;;11.00;;
5157;SDS011;2598;52.364;9.772;2023-10-13T02:29:00;16.53;;;11.40;;
5157;SDS011;2598;52.364;9.772;2023-10-13T02:31:32;16.73;;;10.73;;
5157;SDS011;2598;52.364;9.772;2023-10-13T02:33:58;16.20;;;10.77;;
5157;SDS011;2598;52.364;9.772;2023-10-13T02:36:25;19.77;;;12.33;;
5157;SDS011;2598;52.364;9.772;2023-10-13T02:39:01;16.97;;;10.93;;
5157;SDS011;2598;52.364;9.772;2023-10-13T02:41:32;16.67;;;11.10;;
5157;SDS011;2598;52.364;9.772;2023-10-13T02:44:01;18.73;;;11.37;;
5157;SDS011;2598;52.364;9.772;2023-10-13T02:46:30;18.50;;;11.67;;
5157;SDS011;2598;52.364;9.772;2023-10-13T02:49:00;18.33;;;10.77;;
5157;SDS011;2598;52.364;9.772;2023-10-13T02:51:34;21.63;;;12.00;;
5157;SDS011;2598;52.364;9.772;2023-10-13T02:54:07;13.90;;;10.57;;
5157;SDS011;2598;52.364;9.772;2023-10-13T02:56:37;14.80;;;10.57;;
5157;SDS011;2598;52.364;9.772;2023-10-13T02:59:06;18.00;;;12.47;;
5157;SDS011;2598;52.364;9.772;2023-10-13T03:01:33;19.40;;;11.80;;
5157;SDS011;2598;52.364;9.772;2023-10-13T03:04:00;20.47;;;11.90;;
5157;SDS011;2598;52.364;9.772;2023-10-13T03:06:26;16.87;;;10.83;;
5157;SDS011;2598;52.364;9.772;2023-10-13T03:09:03;14.17;;;9.87;;
5157;SDS011;2598;52.364;9.772;2023-10-13T03:11:40;19.17;;;10.60;;
5157;SDS011;2598;52.364;9.772;2023-10-13T03:14:24;17.60;;;11.60;;
5157;SDS011;2598;52.364;9.772;2023-10-13T03:17:02;21.40;;;11.90;;
5157;SDS011;2598;52.364;9.772;2023-10-13T03:19:34;16.57;;;11.33;;
5157;SDS011;2598;52.364;9.772;2023-10-13T03:22:02;14.73;;;10.40;;
5157;SDS011;2598;52.364;9.772;2023-10-13T03:24:40;18.17;;;11.30;;
5157;SDS011;2598;52.364;9.772;2023-10-13T03:27:11;16.17;;;11.73;;
5157;SDS011;2598;52.364;9.772;2023-10-13T03:29:40;20.67;;;9.30;;
5157;SDS011;2598;52.364;9.772;2023-10-13T03:32:13;15.50;;;10.20;;
5157;SDS011;2598;52.364;9.772;2023-10-13T03:34:43;15.53;;;9.80;;
5157;SDS011;2598;52.364;9.772;2023-10-13T03:37:19;14.17;;;8.67;;
5157;SDS011;2598;52.364;9.772;2023-10-13T03:40:04;15.33;;;8.60;;
5157;SDS011;2598;52.364;9.772;2023-10-13T03:42:46;10.77;;;8.23;;
5157;SDS011;2598;52.364;9.772;2023-10-13T03:45:41;20.93;;;8.50;;
5157;SDS011;2598;52.364;9.772;2023-10-13T03:48:08;11.10;;;7.23;;
5157;SDS011;2598;52.364;9.772;2023-10-13T03:50:37;10.37;;;7.00;;
5157;SDS011;2598;52.364;9.772;2023-10-13T03:53:22;15.20;;;7.43;;
5157;SDS011;2598;52.364;9.772;2023-10-13T03:55:50;9.20;;;6.60;;
5157;SDS011;2598;52.364;9.772;2023-10-13T03:58:32;10.83;;;6.30;;
5157;SDS011;2598;52.364;9.772;2023-10-13T04:00:59;10.40;;;6.33;;
5157;SDS011;2598;52.364;9.772;2023-10-13T04:03:25;10.57;;;6.60;;
5157;SDS011;2598;52.364;9.772;2023-10-13T04:06:07;9.00;;;6.10;;
5157;SDS011;2598;52.364;9.772;2023-10-13T04:08:41;11.70;;;7.17;;
5157;SDS011;2598;52.364;9.772;2023-10-13T04:11:13;11.30;;;7.07;;
5157;SDS011;2598;52.364;9.772;2023-10-13T04:13:57;9.43;;;6.60;;
5157;SDS011;2598;52.364;9.772;2023-10-13T04:16:42;10.83;;;6.67;;
5157;SDS011;2598;52.364;9.772;2023-10-13T04:19:20;13.60;;;8.70;;
5157;SDS011;2598;52.364;9.772;2023-10-13T04:21:49;11.00;;;7.20;;
5157;SDS011;2598;52.364;9.772;2023-10-13T04:24:25;11.33;;;7.30;;
5157;SDS011;2598;52.364;9.772;2023-10-13T04:27:00;13.20;;;8.20;;
5157;SDS011;2598;52.364;9.772;2023-10-13T04:29:45;12.00;;;7.23;;
5157;SDS011;2598;52.364;9.772;2023-10-13T04:32:31;9.60;;;6.23;;
5157;SDS011;2598;52.364;9.772;2023-10-13T04:35:03;10.67;;;7.00;;
5157;SDS011;2598;52.364;9.772;2023-10-13T04:37:43;11.43;;;7.30;;
5157;SDS011;2598;52.364;9.772;2023-10-13T04:40:18;10.50;;;6.73;;
5157;SDS011;2598;52.364;9.772;2023-10-13T04:42:49;12.70;;;7.97;;
5157;SDS011;2598;52.364;9.772;2023-10-13T04:45:18;10.40;;;7.30;;
5157;SDS011;2598;52.364;9.772;2023-10-13T04:48:00;11.57;;;7.23;;
5157;SDS011;2598;52.364;9.772;2023-10-13T04:50:48;9.63;;;6.33;;
5157;SDS011;2598;52.364;9.772;2023-10-13T04:53:40;10.00;;;6.13;;
5157;SDS011;2598;52.364;9.772;2023-10-13T04:56:25;17.10;;;6.80;;
5157;SDS011;2598;52.364;9.772;2023-10-13T04:59:06;11.90;;;7.27;;
5157;SDS011;2598;52.364;9.772;2023-10-13T05:01:51;13.40;;;7.37;;
5157;SDS011;2598;52.364;9.772;2023-10-13T05:04:36;11.47;;;7.53;;
5157;SDS011;2598;52.364;9.772;2023-10-13T05:07:24;9.63;;;7.50;;
5157;SDS011;2598;52.364;9.772;2023-10-13T05:10:09;10.00;;;6.93;;
5157;SDS011;2598;52.364;9.772;2023-10-13T05:12:53;10.33;;;7.00;;
5157;SDS011;2598;52.364;9.772;2023-10-13T05:15:46;13.23;;;7.40;;
5157;SDS011;2598;52.364;9.772;2023-10-13T05:18:31;8.10;;;6.20;;
5157;SDS011;2598;52.364;9.772;2023-10-13T05:21:16;16.20;;;8.00;;
5157;SDS011;2598;52.364;9.772;2023-10-13T05:24:01;10.70;;;6.60;;
5157;SDS011;2598;52.364;9.772;2023-10-13T05:26:45;11.10;;;7.30;;
5157;SDS011;2598;52.364;9.772;2023-10-13T05:29:30;10.37;;;7.00;;
5157;SDS011;2598;52.364;9.772;2023-10-13T05:32:14;11.97;;;7.00;;
5157;SDS011;2598;52.364;9.772;2023-10-13T05:34:59;10.80;;;7.20;;
5157;SDS011;2598;52.364;9.772;2023-10-13T05:37:43;17.13;;;7.17;;
5157;SDS011;2598;52.364;9.772;2023-10-13T05:40:28;8.93;;;6.37;;
5157;SDS011;2598;52.364;9.772;2023-10-13T05:43:13;10.53;;;6.40;;
5157;SDS011;2598;52.364;9.772;2023-10-13T05:46:01;11.50;;;7.40;;
5157;SDS011;2598;52.364;9.772;2023-10-13T05:48:46;10.33;;;7.13;;
5157;SDS011;2598;52.364;9.772;2023-10-13T05:51:28;10.07;;;6.30;;
5157;SDS011;2598;52.364;9.772;2023-10-13T05:53:57;10.73;;;6.47;;
5157;SDS011;2598;52.364;9.772;2023-10-13T05:56:39;12.17;;;6.80;;
5157;SDS011;2598;52.364;9.772;2023-10-13T05:59:24;9.37;;;6.30;;
5157;SDS011;2598;52.364;9.772;2023-10-13T06:02:09;9.43;;;5.67;;
5157;SDS011;2598;52.364;9.772;2023-10-13T06:04:54;14.77;;;6.00;;
5157;SDS011;2598;52.364;9.772;2023-10-13T06:07:38;12.70;;;6.33;;
5157;SDS011;2598;52.364;9.772;2023-10-13T06:10:23;9.17;;;5.47;;
5157;SDS011;2598;52.364;9.772;2023-10-13T06:13:07;8.40;;;5.77;;
5157;SDS011;2598;52.364;9.772;2023-10-13T06:15:52;8.50;;;5.63;;
5157;SDS011;2598;52.364;9.772;2023-10-13T06:18:36;10.40;;;6.27;;
5157;SDS011;2598;52.364;9.772;2023-10-13T06:21:21;9.90;;;5.27;;
5157;SDS011;2598;52.364;9.772;2023-10-13T06:24:06;11.77;;;5.20;;
5157;SDS011;2598;52.364;9.772;2023-10-13T06:26:51;10.50;;;5.50;;
5157;SDS011;2598;52.364;9.772;2023-10-13T06:29:36;13.13;;;6.23;;
5157;SDS011;2598;52.364;9.772;2023-10-13T06:32:02;11.07;;;6.10;;
5157;SDS011;2598;52.364;9.772;2023-10-13T06:34:35;9.60;;;5.73;;
5157;SDS011;2598;52.364;9.772;2023-10-13T06:37:16;12.07;;;5.93;;
5157;SDS011;2598;52.364;9.772;2023-10-13T06:39:55;9.10;;;5.63;;
5157;SDS011;2598;52.364;9.772;2023-10-13T06:42:30;10.20;;;5.43;;
5157;SDS011;2598;52.364;9.772;2023-10-13T06:44:59;8.00;;;5.40;;
5157;SDS011;2598;52.364;9.772;2023-10-13T06:47:33;9.27;;;5.30;;
5157;SDS011;2598;52.364;9.772;2023-10-13T06:50:05;7.77;;;4.67;;
5157;SDS011;2598;52.364;9.772;2023-10-13T06:52:40;8.37;;;4.70;;
5157;SDS011;2598;52.364;9.772;2023-10-13T06:55:07;7.47;;;4.53;;
5157;SDS011;2598;52.364;9.772;2023-10-13T06:57:35;8.83;;;5.20;;
5157;SDS011;2598;52.364;9.772;2023-10-13T07:00:08;10.30;;;5.00;;
5157;SDS011;2598;52.364;9.772;2023-10-13T07:02:37;8.90;;;5.13;;
5157;SDS011;2598;52.364;9.772;2023-10-13T07:05:03;8.50;;;4.93;;
5157;SDS011;2598;52.364;9.772;2023-10-13T07:07:32;10.23;;;5.37;;
5157;SDS011;2598;52.364;9.772;2023-10-13T07:09:58;8.20;;;5.20;;
5157;SDS011;2598;52.364;9.772;2023-10-13T07:12:24;9.27;;;5.10;;
5157;SDS011;2598;52.364;9.772;2023-10-13T07:14:58;7.70;;;5.00;;
5157;SDS011;2598;52.364;9.772;2023-10-13T07:17:36;7.30;;;4.80;;
5157;SDS011;2598;52.364;9.772;2023-10-13T07:20:05;7.97;;;5.00;;
5157;SDS011;2598;52.364;9.772;2023-10-13T07:22:40;10.53;;;5.20;;
5157;SDS011;2598;52.364;9.772;2023-10-13T07:25:19;10.40;;;4.87;;
5157;SDS011;2598;52.364;9.772;2023-10-13T07:27:49;8.50;;;5.40;;
5157;SDS011;2598;52.364;9.772;2023-10-13T07:30:15;9.40;;;5.47;;
5157;SDS011;2598;52.364;9.772;2023-10-13T07:32:44;9.40;;;4.80;;
5157;SDS011;2598;52.364;9.772;2023-10-13T07:35:11;8.57;;;5.00;;
5157;SDS011;2598;52.364;9.772;2023-10-13T07:37:38;8.93;;;5.50;;
5157;SDS011;2598;52.364;9.772;2023-10-13T07:40:07;8.00;;;5.20;;
5157;SDS011;2598;52.364;9.772;2023-10-13T07:42:53;8.73;;;5.07;;
5157;SDS011;2598;52.364;9.772;2023-10-13T07:45:28;9.67;;;5.90;;
5157;SDS011;2598;52.364;9.772;2023-10-13T07:48:01;7.90;;;4.80;;
5157;SDS011;2598;52.364;9.772;2023-10-13T07:50:32;8.53;;;5.03;;
5157;SDS011;2598;52.364;9.772;2023-10-13T07:52:59;8.37;;;5.50;;
5157;SDS011;2598;52.364;9.772;2023-10-13T07:55:43;8.93;;;5.47;;
5157;SDS011;2598;52.364;9.772;2023-10-13T07:58:09;9.43;;;6.10;;
5157;SDS011;2598;52.364;9.772;2023-10-13T08:00:38;11.80;;;5.80;;
5157;SDS011;2598;52.364;9.772;2023-10-13T08:03:10;9.53;;;5.53;;
5157;SDS011;2598;52.364;9.772;2023-10-13T08:05:42;8.43;;;4.80;;
5157;SDS011;2598;52.364;9.772;2023-10-13T08:08:29;8.80;;;4.47;;
5157;SDS011;2598;52.364;9.772;2023-10-13T08:11:08;7.97;;;4.60;;
5157;SDS011;2598;52.364;9.772;2023-10-13T08:13:50;7.60;;;4.53;;
5157;SDS011;2598;52.364;9.772;2023-10-13T08:16:22;7.90;;;4.70;;
5157;SDS011;2598;52.364;9.772;2023-10-13T08:18:54;9.40;;;5.40;;
5157;SDS011;2598;52.364;9.772;2023-10-13T08:21:21;8.27;;;4.50;;
5157;SDS011;2598;52.364;9.772;2023-10-13T08:23:50;5.97;;;3.83;;
5157;SDS011;2598;52.364;9.772;2023-10-13T08:26:22;8.87;;;4.73;;
5157;SDS011;2598;52.364;9.772;2023-10-13T08:29:00;6.57;;;3.17;;
5157;SDS011;2598;52.364;9.772;2023-10-13T08:31:49;7.90;;;3.77;;
5157;SDS011;2598;52.364;9.772;2023-10-13T08:34:46;9.23;;;4.00;;
5157;SDS011;2598;52.364;9.772;2023-10-13T08:37:13;6.73;;;3.70;;
5157;SDS011;2598;52.364;9.772;2023-10-13T08:39:57;7.40;;;3.70;;
5157;SDS011;2598;52.364;9.772;2023-10-13T08:42:26;9.07;;;3.70;;
5157;SDS011;2598;52.364;9.772;2023-10-13T08:45:09;8.30;;;3.90;;
5157;SDS011;2598;52.364;9.772;2023-10-13T08:47:48;8.17;;;3.63;;
5157;SDS011;2598;52.364;9.772;2023-10-13T08:50:42;7.50;;;3.80;;
5157;SDS011;2598;52.364;9.772;2023-10-13T08:53:15;5.00;;;2.80;;
5157;SDS011;2598;52.364;9.772;2023-10-13T08:56:01;8.33;;;3.30;;
5157;SDS011;2598;52.364;9.772;2023-10-13T08:58:33;4.93;;;2.80;;
5157;SDS011;2598;52.364;9.772;2023-10-13T09:01:38;8.40;;;3.07;;
5157;SDS011;2598;52.364;9.772;2023-10-13T09:06:58;4.60;;;2.40;;
5157;SDS011;2598;52.364;9.772;2023-10-13T09:09:24;5.70;;;2.40;;
5157;SDS011;2598;52.364;9.772;2023-10-13T09:12:24;5.90;;;2.97;;
5157;SDS011;2598;52.364;9.772;2023-10-13T09:14:59;6.50;;;3.13;;
5157;SDS011;2598;52.364;9.772;2023-10-13T09:17:46;7.53;;;2.83;;
5157;SDS011;2598;52.364;9.772;2023-10-13T09:20:16;6.87;;;3.50;;
5157;SDS011;2598;52.364;9.772;2023-10-13T09:23:11;9.30;;;3.47;;
5157;SDS011;2598;52.364;9.772;2023-10-13T09:25:38;5.80;;;2.20;;
5157;SDS011;2598;52.364;9.772;2023-10-13T09:28:24;6.10;;;2.77;;
5157;SDS011;2598;52.364;9.772;2023-10-13T09:30:51;6.23;;;2.60;;
5157;SDS011;2598;52.364;9.772;2023-10-13T09:33:21;9.10;;;3.10;;
5157;SDS011;2598;52.364;9.772;2023-10-13T09:36:15;6.00;;;2.67;;
5157;SDS011;2598;52.364;9.772;2023-10-13T09:38:42;5.27;;;2.70;;
5157;SDS011;2598;52.364;9.772;2023-10-13T09:41:28;5.20;;;2.63;;
5157;SDS011;2598;52.364;9.772;2023-10-13T09:43:57;5.57;;;2.67;;
5157;SDS011;2598;52.364;9.772;2023-10-13T09:46:25;8.13;;;2.53;;
5157;SDS011;2598;52.364;9.772;2023-10-13T09:48:55;7.60;;;3.00;;
5157;SDS011;2598;52.364;9.772;2023-10-13T09:51:31;7.37;;;2.90;;
5157;SDS011;2598;52.364;9.772;2023-10-13T09:56:26;5.97;;;2.60;;
5157;SDS011;2598;52.364;9.772;2023-10-13T09:59:01;8.10;;;2.70;;
5157;SDS011;2598;52.364;9.772;2023-10-13T10:01:34;5.83;;;2.83;;
5157;SDS011;2598;52.364;9.772;2023-10-13T10:04:10;5.50;;;2.47;;
5157;SDS011;2598;52.364;9.772;2023-10-13T10:09:19;7.27;;;2.70;;
5157;SDS011;2598;52.364;9.772;2023-10-13T10:17:16;8.23;;;3.27;;
5157;SDS011;2598;52.364;9.772;2023-10-13T10:22:12;9.93;;;3.70;;
5157;SDS011;2598;52.364;9.772;2023-10-13T10:24:41;6.07;;;3.03;;
5157;SDS011;2598;52.364;9.772;2023-10-13T10:27:08;5.57;;;2.43;;
5157;SDS011;2598;52.364;9.772;2023-10-13T10:29:39;6.43;;;2.93;;
5157;SDS011;2598;52.364;9.772;2023-10-13T10:32:12;11.30;;;3.27;;
5157;SDS011;2598;52.364;9.772;2023-10-13T10:34:39;7.20;;;2.90;;
5157;SDS011;2598;52.364;9.772;2023-10-13T10:37:05;9.23;;;3.60;;
5157;SDS011;2598;52.364;9.772;2023-10-13T10:39:37;11.60;;;3.60;;
5157;SDS011;2598;52.364;9.772;2023-10-13T10:42:14;10.50;;;3.30;;
5157;SDS011;2598;52.364;9.772;2023-10-13T10:44:41;9.17;;;3.40;;
5157;SDS011;2598;52.364;9.772;2023-10-13T10:47:13;9.30;;;3.40;;
5157;SDS011;2598;52.364;9.772;2023-10-13T10:50:02;8.63;;;3.10;;
5157;SDS011;2598;52.364;9.772;2023-10-13T10:52:45;13.20;;;3.50;;
5157;SDS011;2598;52.364;9.772;2023-10-13T10:55:12;7.83;;;2.97;;
5157;SDS011;2598;52.364;9.772;2023-10-13T10:57:44;15.40;;;3.40;;
5157;SDS011;2598;52.364;9.772;2023-10-13T11:00:20;10.47;;;3.90;;
5157;SDS011;2598;52.364;9.772;2023-10-13T11:02:56;11.63;;;3.83;;
5157;SDS011;2598;52.364;9.772;2023-10-13T11:05:25;12.50;;;3.40;;
5157;SDS011;2598;52.364;9.772;2023-10-13T11:07:57;14.27;;;5.03;;
5157;SDS011;2598;52.364;9.772;2023-10-13T11:10:23;7.80;;;3.40;;
5157;SDS011;2598;52.364;9.772;2023-10-13T11:12:53;7.40;;;3.20;;
5157;SDS011;2598;52.364;9.772;2023-10-13T11:15:19;8.23;;;3.47;;
5157;SDS011;2598;52.364;9.772;2023-10-13T11:17:51;12.43;;;4.07;;
5157;SDS011;2598;52.364;9.772;2023-10-13T11:20:21;12.10;;;3.97;;
5157;SDS011;2598;52.364;9.772;2023-10-13T11:22:51;7.77;;;3.30;;
5157;SDS011;2598;52.364;9.772;2023-10-13T11:25:24;13.40;;;3.97;;
5157;SDS011;2598;52.364;9.772;2023-10-13T11:28:09;8.83;;;3.70;;
5157;SDS011;2598;52.364;9.772;2023-10-13T11:30:42;8.80;;;3.90;;
5157;SDS011;2598;52.364;9.772;2023-10-13T11:33:10;11.63;;;3.97;;
5157;SDS011;2598;52.364;9.772;2023-10-13T11:35:38;12.00;;;3.37;;
5157;SDS011;2598;52.364;9.772;2023-10-13T11:40:51;10.80;;;4.03;;
5157;SDS011;2598;52.364;9.772;2023-10-13T11:43:29;13.43;;;3.83;;
5157;SDS011;2598;52.364;9.772;2023-10-13T11:46:00;17.33;;;4.00;;
5157;SDS011;2598;52.364;9.772;2023-10-13T11:48:38;9.00;;;3.60;;
5157;SDS011;2598;52.364;9.772;2023-10-13T11:51:07;14.70;;;4.33;;
5157;SDS011;2598;52.364;9.772;2023-10-13T11:53:36;14.03;;;4.10;;
5157;SDS011;2598;52.364;9.772;2023-10-13T11:56:02;8.83;;;3.77;;
5157;SDS011;2598;52.364;9.772;2023-10-13T11:58:37;14.00;;;4.20;;
5157;SDS011;2598;52.364;9.772;2023-10-13T12:01:04;11.70;;;4.07;;
5157;SDS011;2598;52.364;9.772;2023-10-13T12:03:36;10.60;;;5.13;;
5157;SDS011;2598;52.364;9.772;2023-10-13T12:06:21;7.17;;;3.73;;
5157;SDS011;2598;52.364;9.772;2023-10-13T12:09:02;17.50;;;4.50;;
5157;SDS011;2598;52.364;9.772;2023-10-13T12:12:03;10.30;;;4.37;;
5157;SDS011;2598;52.364;9.772;2023-10-13T12:14:30;14.27;;;4.27;;
5157;SDS011;2598;52.364;9.772;2023-10-13T12:17:05;12.37;;;4.20;;
5157;SDS011;2598;52.364;9.772;2023-10-13T12:19:35;10.07;;;4.87;;
5157;SDS011;2598;52.364;9.772;2023-10-13T12:22:04;11.93;;;4.23;;
5157;SDS011;2598;52.364;9.772;2023-10-13T12:24:33;10.77;;;3.83;;
5157;SDS011;2598;52.364;9.772;2023-10-13T12:26:59;11.23;;;4.60;;
5157;SDS011;2598;52.364;9.772;2023-10-13T12:29:26;9.80;;;4.50;;
5157;SDS011;2598;52.364;9.772;2023-10-13T12:31:56;10.77;;;4.57;;
5157;SDS011;2598;52.364;9.772;2023-10-13T12:34:34;12.30;;;4.70;;
5157;SDS011;2598;52.364;9.772;2023-10-13T12:37:19;9.23;;;4.17;;
5157;SDS011;2598;52.364;9.772;2023-10-13T12:42:48;12.33;;;4.20;;
5157;SDS011;2598;52.364;9.772;2023-10-13T12:45:32;15.30;;;4.00;;
5157;SDS011;2598;52.364;9.772;2023-10-13T12:48:17;14.67;;;4.17;;
5157;SDS011;2598;52.364;9.772;2023-10-13T12:51:01;6.50;;;3.60;;
5157;SDS011;2598;52.364;9.772;2023-10-13T12:53:50;14.33;;;4.40;;
5157;SDS011;2598;52.364;9.772;2023-10-13T12:56:16;7.17;;;3.90;;
5157;SDS011;2598;52.364;9.772;2023-10-13T12:58:43;8.83;;;4.13;;
5157;SDS011;2598;52.364;9.772;2023-10-13T13:01:19;10.77;;;4.00;;
5157;SDS011;2598;52.364;9.772;2023-10-13T13:03:48;12.13;;;4.80;;
5157;SDS011;2598;52.364;9.772;2023-10-13T13:06:21;10.37;;;4.23;;
5157;SDS011;2598;52.364;9.772;2023-10-13T13:08:50;14.33;;;4.43;;
5157;SDS011;2598;52.364;9.772;2023-10-13T13:11:17;11.43;;;4.40;;
5157;SDS011;2598;52.364;9.772;2023-10-13T13:13:42;11.70;;;4.47;;
5157;SDS011;2598;52.364;9.772;2023-10-13T13:16:11;10.47;;;4.60;;
5157;SDS011;2598;52.364;9.772;2023-10-13T13:18:37;11.27;;;3.70;;
5157;SDS011;2598;52.364;9.772;2023-10-13T13:21:04;11.13;;;3.90;;
5157;SDS011;2598;52.364;9.772;2023-10-13T13:23:31;16.97;;;4.90;;
5157;SDS011;2598;52.364;9.772;2023-10-13T13:25:59;12.00;;;3.33;;
5157;SDS011;2598;52.364;9.772;2023-10-13T13:28:25;15.10;;;4.03;;
5157;SDS011;2598;52.364;9.772;2023-10-13T13:30:53;13.20;;;4.20;;
5157;SDS011;2598;52.364;9.772;2023-10-13T13:33:19;15.03;;;4.30;;
5157;SDS011;2598;52.364;9.772;2023-10-13T13:35:53;10.60;;;3.83;;
5157;SDS011;2598;52.364;9.772;2023-10-13T13:38:19;13.97;;;4.43;;
5157;SDS011;2598;52.364;9.772;2023-10-13T13:40:52;18.87;;;4.80;;
5157;SDS011;2598;52.364;9.772;2023-10-13T13:43:22;11.27;;;3.83;;
5157;SDS011;2598;52.364;9.772;2023-10-13T13:46:12;26.90;;;4.90;;
5157;SDS011;2598;52.364;9.772;2023-10-13T13:48:42;8.90;;;4.80;;
5157;SDS011;2598;52.364;9.772;2023-10-13T13:51:08;11.33;;;4.60;;
5157;SDS011;2598;52.364;9.772;2023-10-13T13:53:43;13.03;;;4.40;;
5157;SDS011;2598;52.364;9.772;2023-10-13T13:56:15;16.63;;;4.97;;
5157;SDS011;2598;52.364;9.772;2023-10-13T13:58:44;11.90;;;4.70;;
5157;SDS011;2598;52.364;9.772;2023-10-13T14:01:11;11.10;;;4.27;;
5157;SDS011;2598;52.364;9.772;2023-10-13T14:03:43;13.60;;;4.13;;
5157;SDS011;2598;52.364;9.772;2023-10-13T14:06:10;12.27;;;4.60;;
5157;SDS011;2598;52.364;9.772;2023-10-13T14:08:52;12.97;;;4.50;;
5157;SDS011;2598;52.364;9.772;2023-10-13T14:11:26;11.77;;;4.63;;
5157;SDS011;2598;52.364;9.772;2023-10-13T14:14:11;13.73;;;4.30;;
5157;SDS011;2598;52.364;9.772;2023-10-13T14:16:42;9.93;;;4.50;;
5157;SDS011;2598;52.364;9.772;2023-10-13T14:19:13;13.30;;;5.00;;
5157;SDS011;2598;52.364;9.772;2023-10-13T14:21:54;10.13;;;3.90;;
5157;SDS011;2598;52.364;9.772;2023-10-13T14:24:21;10.10;;;4.63;;
5157;SDS011;2598;52.364;9.772;2023-10-13T14:26:53;9.93;;;4.00;;
5157;SDS011;2598;52.364;9.772;2023-10-13T14:29:19;11.67;;;4.27;;
5157;SDS011;2598;52.364;9.772;2023-10-13T14:31:45;13.83;;;4.50;;
5157;SDS011;2598;52.364;9.772;2023-10-13T14:34:14;19.67;;;4.80;;
5157;SDS011;2598;52.364;9.772;2023-10-13T14:36:40;14.27;;;4.37;;
5157;SDS011;2598;52.364;9.772;2023-10-13T14:39:12;11.00;;;5.00;;
5157;SDS011;2598;52.364;9.772;2023-10-13T14:41:38;10.53;;;4.40;;
5157;SDS011;2598;52.364;9.772;2023-10-13T14:44:04;11.20;;;5.20;;
5157;SDS011;2598;52.364;9.772;2023-10-13T14:46:31;8.27;;;4.20;;
5157;SDS011;2598;52.364;9.772;2023-10-13T14:49:00;14.10;;;4.47;;
5157;SDS011;2598;52.364;9.772;2023-10-13T14:51:27;15.70;;;4.40;;
5157;SDS011;2598;52.364;9.772;2023-10-13T14:53:54;14.93;;;4.47;;
5157;SDS011;2598;52.364;9.772;2023-10-13T14:56:24;13.20;;;4.33;;
5157;SDS011;2598;52.364;9.772;2023-10-13T14:58:51;15.70;;;4.60;;
5157;SDS011;2598;52.364;9.772;2023-10-13T15:01:18;10.50;;;4.70;;
5157;SDS011;2598;52.364;9.772;2023-10-13T15:03:45;13.53;;;4.40;;
5157;SDS011;2598;52.364;9.772;2023-10-13T15:06:18;9.60;;;3.80;;
5157;SDS011;2598;52.364;9.772;2023-10-13T15:08:50;11.60;;;4.57;;
5157;SDS011;2598;52.364;9.772;2023-10-13T15:11:18;13.13;;;3.83;;
5157;SDS011;2598;52.364;9.772;2023-10-13T15:13:45;11.40;;;4.47;;
5157;SDS011;2598;52.364;9.772;2023-10-13T15:16:18;9.77;;;4.70;;
5157;SDS011;2598;52.364;9.772;2023-10-13T15:18:45;14.53;;;4.60;;
5157;SDS011;2598;52.364;9.772;2023-10-13T15:23:48;14.73;;;4.50;;
5157;SDS011;2598;52.364;9.772;2023-10-13T15:26:16;10.47;;;3.73;;
5157;SDS011;2598;52.364;9.772;2023-10-13T15:28:42;13.90;;;5.10;;
5157;SDS011;2598;52.364;9.772;2023-10-13T15:31:14;15.87;;;4.97;;
5157;SDS011;2598;52.364;9.772;2023-10-13T15:34:03;14.33;;;5.20;;
5157;SDS011;2598;52.364;9.772;2023-10-13T15:36:35;14.20;;;5.43;;
5157;SDS011;2598;52.364;9.772;2023-10-13T15:39:02;13.87;;;4.20;;
5157;SDS011;2598;52.364;9.772;2023-10-13T15:41:32;12.70;;;4.87;;
5157;SDS011;2598;52.364;9.772;2023-10-13T15:43:58;11.13;;;4.70;;
5157;SDS011;2598;52.364;9.772;2023-10-13T15:46:24;15.10;;;5.10;;
5157;SDS011;2598;52.364;9.772;2023-10-13T15:48:51;9.50;;;4.20;;
5157;SDS011;2598;52.364;9.772;2023-10-13T15:51:17;17.60;;;4.13;;
5157;SDS011;2598;52.364;9.772;2023-10-13T15:53:43;16.77;;;4.47;;
5157;SDS011;2598;52.364;9.772;2023-10-13T15:56:12;7.77;;;4.10;;
5157;SDS011;2598;52.364;9.772;2023-10-13T15:58:39;11.60;;;4.60;;
5157;SDS011;2598;52.364;9.772;2023-10-13T16:01:06;16.53;;;5.10;;
5157;SDS011;2598;52.364;9.772;2023-10-13T16:03:33;15.27;;;5.40;;
5157;SDS011;2598;52.364;9.772;2023-10-13T16:06:01;15.83;;;4.57;;
5157;SDS011;2598;52.364;9.772;2023-10-13T16:08:29;16.73;;;4.87;;